Search for airport 
image banner adimage banner adimage banner ad
image banner ad

PN16 - Pabst Blue Ribbon

Located in Evans City, United States

ICAO - PN16, IATA -

Data provided by Airmate  

General information

Coordinates: N40°45'30" W80°0'49"
Elevation is 1250 feet MSL.
Magnetic variation is -08° East
View others Airports in Pennsylvania

Operational data

Special qualification required
Current time UTC:
Current local time:
METAR: KBTP 071356Z AUTO 00000KT 10SM -RA SCT007 BKN027 OVC035 06/04 A2990 RMK AO2 SLP137 P0000 T00560044
View NOTAMs / SUP AIP / TFR affecting this airport [VIEW]
Communications frequencies: [VIEW]

Runways:

RWY identifierQFULength (ft)Width (ft)SurfaceLDA (ft)
092500100GRASS
272500100GRASS

Airport contact information

Address: Evans City United States

Satellite view of PN16